createdAt,value
2022-10-09T00:00:50.363Z,73.10
2022-10-09T00:04:53.161Z,73.40
2022-10-09T00:08:56.260Z,73.20
2022-10-09T00:12:59.124Z,73.20
2022-10-09T00:17:02.109Z,73.50
2022-10-09T00:21:06.321Z,73.50
2022-10-09T00:25:10.211Z,73.50
2022-10-09T00:29:13.223Z,73.50
2022-10-09T00:33:16.657Z,73.30
2022-10-09T00:37:19.768Z,73.40
2022-10-09T00:41:29.490Z,73.40
2022-10-09T00:45:32.635Z,73.60
2022-10-09T00:49:35.503Z,73.50
2022-10-09T00:53:38.736Z,73.50
2022-10-09T00:57:43.213Z,73.80
2022-10-09T01:01:46.852Z,73.90
2022-10-09T01:06:27.570Z,73.80
2022-10-09T01:10:46.697Z,73.80
2022-10-09T01:15:18.922Z,73.90
2022-10-09T01:19:40.124Z,73.50
2022-10-09T01:24:02.136Z,73.80
2022-10-09T01:28:07.484Z,74.10
2022-10-09T01:32:15.989Z,74.00
2022-10-09T01:36:20.293Z,74.00
2022-10-09T01:40:25.677Z,74.00
2022-10-09T01:44:32.413Z,74.20
2022-10-09T01:48:35.506Z,74.60
2022-10-09T01:52:53.465Z,73.30
2022-10-09T01:56:59.043Z,75.00
2022-10-09T02:01:04.609Z,74.80
2022-10-09T02:05:09.824Z,74.60
2022-10-09T02:09:15.600Z,74.60
2022-10-09T02:13:19.167Z,74.70
2022-10-09T02:17:29.629Z,74.80
2022-10-09T02:22:10.866Z,75.20
2022-10-09T02:26:14.317Z,75.10
2022-10-09T02:30:18.722Z,74.80
2022-10-09T02:34:22.809Z,75.00
2022-10-09T02:38:25.772Z,75.00
2022-10-09T02:42:28.517Z,74.90
2022-10-09T02:46:31.582Z,74.90
2022-10-09T02:50:35.960Z,75.00
2022-10-09T02:54:38.791Z,75.10
2022-10-09T02:58:41.722Z,75.10
2022-10-09T03:02:45.189Z,75.20
2022-10-09T03:06:48.190Z,75.50
2022-10-09T03:10:51.910Z,75.40
2022-10-09T03:14:55.483Z,75.30
2022-10-09T03:18:58.951Z,75.20
2022-10-09T03:23:01.713Z,75.30
2022-10-09T03:27:04.884Z,75.30
2022-10-09T03:31:08.638Z,75.20
2022-10-09T03:35:11.613Z,75.30
2022-10-09T03:39:14.552Z,75.40
2022-10-09T03:43:17.506Z,75.40
2022-10-09T03:47:20.333Z,75.50
2022-10-09T03:51:23.212Z,75.40
2022-10-09T03:55:26.309Z,75.20
2022-10-09T03:59:29.489Z,75.30
2022-10-09T04:03:32.289Z,75.40
2022-10-09T04:07:35.155Z,75.50
2022-10-09T04:11:38.033Z,75.50
2022-10-09T04:15:40.847Z,75.50
2022-10-09T04:19:43.707Z,75.50
2022-10-09T04:23:46.803Z,75.50
2022-10-09T04:27:49.700Z,75.40
2022-10-09T04:31:53.128Z,75.50
2022-10-09T04:35:57.626Z,75.50
2022-10-09T04:40:00.486Z,75.60
2022-10-09T04:44:04.096Z,75.60
2022-10-09T04:48:07.350Z,75.60
2022-10-09T04:52:15.508Z,75.50
2022-10-09T04:56:21.024Z,75.60
2022-10-09T05:00:24.467Z,75.80
2022-10-09T05:04:29.662Z,75.80
2022-10-09T05:08:35.753Z,76.00
2022-10-09T05:12:41.244Z,76.10
2022-10-09T05:17:08.428Z,76.00
2022-10-09T05:21:10.781Z,76.00
2022-10-09T05:42:13.942Z,76.30
2022-10-09T05:46:27.621Z,76.40
2022-10-09T05:50:33.440Z,76.70
2022-10-09T05:54:37.219Z,76.50
2022-10-09T05:58:51.780Z,76.40
2022-10-09T06:02:58.772Z,76.50
2022-10-09T06:07:02.825Z,76.40
2022-10-09T06:11:19.964Z,76.20
2022-10-09T06:15:25.677Z,76.50
2022-10-09T06:19:57.613Z,76.20
2022-10-09T06:24:29.030Z,76.00
2022-10-09T06:28:34.955Z,75.90
2022-10-09T06:32:39.519Z,76.30
2022-10-09T06:36:46.648Z,76.40
2022-10-09T06:40:50.849Z,76.50
2022-10-09T06:44:58.135Z,76.40
2022-10-09T06:49:09.107Z,76.40
2022-10-09T06:53:14.823Z,76.30
2022-10-09T06:57:22.270Z,76.10
2022-10-09T07:01:30.490Z,76.10
2022-10-09T07:05:35.957Z,76.10
2022-10-09T07:09:45.698Z,76.10
2022-10-09T07:14:21.041Z,76.10
2022-10-09T07:18:54.515Z,75.80
2022-10-09T07:23:24.369Z,75.80
2022-10-09T07:28:24.997Z,75.90
2022-10-09T07:32:28.915Z,76.30
2022-10-09T07:44:24.470Z,76.40
2022-10-09T07:55:14.417Z,75.80
2022-10-09T07:59:17.898Z,75.90
2022-10-09T08:03:21.052Z,75.40
2022-10-09T08:07:23.758Z,75.20
2022-10-09T08:11:28.937Z,75.10
2022-10-09T08:15:31.663Z,75.00
2022-10-09T08:19:34.636Z,74.20
2022-10-09T08:23:37.430Z,74.10
2022-10-09T08:27:40.216Z,73.70
2022-10-09T08:31:43.273Z,72.60
2022-10-09T08:35:47.059Z,72.50
2022-10-09T08:39:49.882Z,71.20
2022-10-09T08:44:01.750Z,71.40
2022-10-09T08:48:20.498Z,70.70
2022-10-09T08:52:41.661Z,70.40
2022-10-09T08:56:45.103Z,69.90
2022-10-09T09:00:55.087Z,69.90
2022-10-09T09:05:25.111Z,70.00
2022-10-09T09:09:36.310Z,69.80
2022-10-09T09:13:54.347Z,69.20
2022-10-09T09:18:19.200Z,69.00
2022-10-09T09:22:24.593Z,69.10
2022-10-09T09:26:27.770Z,68.90
2022-10-09T09:30:41.397Z,68.50
2022-10-09T09:34:48.880Z,68.20
2022-10-09T09:39:36.207Z,67.30
2022-10-09T09:43:19.310Z,65.80
2022-10-09T09:47:30.283Z,64.20
2022-10-09T09:51:33.446Z,65.00
2022-10-09T09:55:41.497Z,63.80
2022-10-09T09:59:44.798Z,63.10
2022-10-09T10:03:50.768Z,63.00
2022-10-09T10:07:54.361Z,62.80
2022-10-09T10:12:03.797Z,62.90
2022-10-09T10:16:08.949Z,62.70
2022-10-09T10:20:16.734Z,62.80
2022-10-09T10:24:23.747Z,61.60
2022-10-09T10:28:32.384Z,62.50
2022-10-09T10:32:47.419Z,61.60
2022-10-09T10:37:02.428Z,61.90
2022-10-09T10:41:21.242Z,61.40
2022-10-09T10:45:38.946Z,61.70
2022-10-09T10:49:41.835Z,62.00
2022-10-09T10:53:50.179Z,61.60
2022-10-09T10:58:13.387Z,61.90
2022-10-09T11:02:32.488Z,61.90
2022-10-09T11:06:54.007Z,61.80
2022-10-09T11:11:14.090Z,61.70
2022-10-09T11:15:56.406Z,61.80
2022-10-09T11:20:08.155Z,62.10
2022-10-09T11:24:33.358Z,61.40
2022-10-09T11:28:45.325Z,61.30
2022-10-09T11:32:57.728Z,60.60
2022-10-09T11:37:02.718Z,61.20
2022-10-09T11:41:07.585Z,60.80
2022-10-09T11:45:40.019Z,61.10
2022-10-09T11:50:03.485Z,60.80
2022-10-09T11:54:14.976Z,60.60
2022-10-09T11:58:23.610Z,60.30
2022-10-09T12:02:30.669Z,60.40
2022-10-09T12:06:46.524Z,60.10
2022-10-09T12:11:00.622Z,60.10
2022-10-09T12:15:48.788Z,59.80
2022-10-09T12:20:01.616Z,60.10
2022-10-09T12:24:06.220Z,60.20
2022-10-09T12:28:36.498Z,59.60
2022-10-09T12:32:44.676Z,59.40
2022-10-09T12:36:47.489Z,59.00
2022-10-09T12:40:52.104Z,58.90
2022-10-09T12:44:55.973Z,58.80
2022-10-09T12:49:01.047Z,59.60
2022-10-09T12:53:25.943Z,58.50
2022-10-09T12:57:29.969Z,58.90
2022-10-09T13:01:34.610Z,58.60
2022-10-09T13:05:40.261Z,58.00
2022-10-09T13:09:43.174Z,58.30
2022-10-09T13:13:53.814Z,57.50
2022-10-09T13:17:56.594Z,57.20
2022-10-09T13:22:18.602Z,56.10
2022-10-09T13:26:30.376Z,57.20
2022-10-09T13:30:33.596Z,56.20
2022-10-09T13:34:36.434Z,56.50
2022-10-09T13:38:39.297Z,57.00
2022-10-09T13:42:42.846Z,56.50
2022-10-09T13:46:45.544Z,57.60
2022-10-09T13:50:48.314Z,57.20
2022-10-09T13:54:51.583Z,57.60
2022-10-09T13:58:54.457Z,57.60
2022-10-09T14:02:57.260Z,57.90
2022-10-09T14:07:00.026Z,58.20
2022-10-09T14:11:03.511Z,58.40
2022-10-09T14:15:07.584Z,57.70
2022-10-09T14:19:10.781Z,58.20
2022-10-09T14:23:14.103Z,57.00
2022-10-09T14:27:17.122Z,57.30
2022-10-09T14:31:20.750Z,56.90
2022-10-09T14:35:24.430Z,56.70
2022-10-09T14:39:27.183Z,57.30
2022-10-09T14:43:30.616Z,56.50
2022-10-09T14:47:33.363Z,56.50
2022-10-09T14:51:38.670Z,56.20
2022-10-09T14:55:41.934Z,56.40
2022-10-09T14:59:44.807Z,56.80
2022-10-09T15:03:48.284Z,57.10
2022-10-09T15:07:51.536Z,57.50
2022-10-09T15:11:54.516Z,56.60
2022-10-09T15:16:02.420Z,56.40
2022-10-09T15:20:05.417Z,56.80
2022-10-09T15:24:09.326Z,56.90
2022-10-09T15:28:13.630Z,57.10
2022-10-09T15:32:16.402Z,57.30
2022-10-09T15:36:20.469Z,57.50
2022-10-09T15:40:23.328Z,57.20
2022-10-09T15:44:26.052Z,57.30
2022-10-09T15:48:29.726Z,57.80
2022-10-09T15:52:32.593Z,58.20
2022-10-09T15:56:39.612Z,58.50
2022-10-09T16:00:48.773Z,58.80
2022-10-09T16:04:52.069Z,59.10
2022-10-09T16:08:56.886Z,59.50
2022-10-09T16:12:59.905Z,59.80
2022-10-09T16:17:04.638Z,60.20
2022-10-09T16:21:15.386Z,60.40
2022-10-09T16:25:18.106Z,60.50
2022-10-09T16:29:20.988Z,60.50
2022-10-09T16:33:23.904Z,60.50
2022-10-09T16:37:27.762Z,60.40
2022-10-09T16:41:32.225Z,60.70
2022-10-09T16:45:34.871Z,60.90
2022-10-09T16:49:42.035Z,60.90
2022-10-09T16:54:05.412Z,60.90
2022-10-09T16:58:08.158Z,60.70
2022-10-09T17:02:13.367Z,61.00
2022-10-09T17:06:20.237Z,61.10
2022-10-09T17:10:22.900Z,61.30
2022-10-09T17:14:26.063Z,61.50
2022-10-09T17:18:29.859Z,61.60
2022-10-09T17:22:32.573Z,61.50
2022-10-09T17:26:36.191Z,61.30
2022-10-09T17:30:40.923Z,61.50
2022-10-09T17:34:46.228Z,61.50
2022-10-09T17:38:52.301Z,61.50
2022-10-09T17:42:55.262Z,62.00
2022-10-09T17:46:58.146Z,62.10
2022-10-09T17:51:04.057Z,62.20
2022-10-09T17:55:07.404Z,62.50
2022-10-09T17:59:14.827Z,62.80
2022-10-09T18:03:22.652Z,63.20
2022-10-09T18:07:25.494Z,63.70
2022-10-09T18:11:30.459Z,64.10
2022-10-09T18:15:44.723Z,64.60
2022-10-09T18:19:48.124Z,64.60
2022-10-09T18:23:50.901Z,64.70
2022-10-09T18:27:53.636Z,64.50
2022-10-09T18:31:56.553Z,64.40
2022-10-09T18:36:18.302Z,64.20
2022-10-09T18:40:21.950Z,63.70
2022-10-09T18:44:25.133Z,63.70
2022-10-09T18:48:34.297Z,63.70
2022-10-09T18:52:39.800Z,63.80
2022-10-09T18:56:42.987Z,63.90
2022-10-09T19:00:46.295Z,64.00
2022-10-09T19:04:49.133Z,64.40
2022-10-09T19:08:53.285Z,64.40
2022-10-09T19:13:00.179Z,64.80
2022-10-09T19:17:03.041Z,65.20
2022-10-09T19:21:06.912Z,65.20
2022-10-09T19:25:11.916Z,65.50
2022-10-09T19:29:14.623Z,65.80
2022-10-09T19:33:18.290Z,65.70
2022-10-09T19:37:22.807Z,65.90
2022-10-09T19:41:27.569Z,66.40
2022-10-09T19:45:31.392Z,66.30
2022-10-09T19:49:34.743Z,66.70
2022-10-09T19:53:38.920Z,66.80
2022-10-09T19:57:44.364Z,67.00
2022-10-09T20:01:47.292Z,66.90
2022-10-09T20:05:50.001Z,67.30
2022-10-09T20:09:52.848Z,67.50
2022-10-09T20:13:56.620Z,67.70
2022-10-09T20:17:59.977Z,67.70
2022-10-09T20:22:02.817Z,67.90
2022-10-09T20:26:08.689Z,68.00
2022-10-09T20:30:12.199Z,68.30
2022-10-09T20:34:16.886Z,68.50
2022-10-09T20:38:24.690Z,68.90
2022-10-09T20:42:29.018Z,69.00
2022-10-09T20:46:34.189Z,69.00
2022-10-09T20:50:41.605Z,69.30
2022-10-09T20:54:44.936Z,69.70
2022-10-09T20:58:48.139Z,69.40
2022-10-09T21:02:51.237Z,69.30
2022-10-09T21:06:54.359Z,69.60
2022-10-09T21:10:57.565Z,69.60
2022-10-09T21:15:00.517Z,69.40
2022-10-09T21:19:04.782Z,69.60
2022-10-09T21:23:08.915Z,69.60
2022-10-09T21:27:11.924Z,69.50
2022-10-09T21:31:20.038Z,69.40
2022-10-09T21:35:23.402Z,69.60
2022-10-09T21:39:26.593Z,69.80
2022-10-09T21:43:29.387Z,69.70
2022-10-09T21:47:32.192Z,69.80
2022-10-09T21:51:35.149Z,69.90
2022-10-09T21:55:39.570Z,70.10
2022-10-09T21:59:42.371Z,70.20
2022-10-09T22:03:45.580Z,70.10
2022-10-09T22:07:48.375Z,70.20
2022-10-09T22:11:51.159Z,70.10
2022-10-09T22:15:53.940Z,70.10
2022-10-09T22:19:56.693Z,70.10
2022-10-09T22:24:00.721Z,70.20
2022-10-09T22:28:04.641Z,70.20
2022-10-09T22:32:08.743Z,70.30
2022-10-09T22:36:14.790Z,70.30
2022-10-09T22:40:18.080Z,70.40
2022-10-09T22:44:20.813Z,70.40
2022-10-09T22:48:23.767Z,70.50
2022-10-09T22:52:27.124Z,70.40
2022-10-09T22:56:36.022Z,70.50
2022-10-09T23:00:39.224Z,70.40
2022-10-09T23:04:42.075Z,69.90
2022-10-09T23:08:47.319Z,69.80
2022-10-09T23:12:50.292Z,69.50
2022-10-09T23:16:53.257Z,69.50
2022-10-09T23:20:56.515Z,69.60
2022-10-09T23:24:59.249Z,69.60
2022-10-09T23:29:08.346Z,69.70
2022-10-09T23:33:11.045Z,69.90
2022-10-09T23:37:13.831Z,70.00
2022-10-09T23:41:19.058Z,70.20
2022-10-09T23:45:22.171Z,69.00
2022-10-09T23:49:25.376Z,68.00
2022-10-09T23:53:28.882Z,67.10
2022-10-09T23:57:33.070Z,66.30
